Time;durP1;ratioP1;P1;durP2;ratioP2;P2;SDS_P1;SDS_P2;PMS_P1;PMS_P2;Temp;Humidity;BMP_temperature;BMP_pressure;BME280_temperature;BME280_humidity;BME280_pressure;Samples;Min_cycle;Max_cycle;Signal;HPM_P1;HPM_P2
2022/12/19 00:01:39;;;;;;;4.95;3.20;;;19.20;44.70;;;;;;5051673;28;20094;-60
2022/12/19 00:04:09;;;;;;;6.13;3.60;;;19.20;44.70;;;;;;5051963;28;20106;-60
2022/12/19 00:06:35;;;;;;;6.53;3.58;;;19.20;44.70;;;;;;5033160;28;20127;-60
2022/12/19 00:09:01;;;;;;;6.68;3.80;;;19.20;44.70;;;;;;5051596;28;20088;-60
2022/12/19 00:11:27;;;;;;;5.53;3.50;;;19.10;44.70;;;;;;5051359;28;20084;-60
2022/12/19 00:13:52;;;;;;;6.20;3.65;;;19.10;44.60;;;;;;5050608;28;20562;-61
2022/12/19 00:16:24;;;;;;;6.68;3.92;;;19.10;44.60;;;;;;5050261;28;20037;-60
2022/12/19 00:18:50;;;;;;;6.10;3.20;;;19.10;44.60;;;;;;5051480;28;20086;-60
2022/12/19 00:21:17;;;;;;;6.07;3.40;;;19.10;44.70;;;;;;5050813;28;20102;-60
2022/12/19 00:23:43;;;;;;;6.50;3.63;;;19.10;44.60;;;;;;5051082;28;20506;-60
2022/12/19 00:26:18;;;;;;;6.43;3.72;;;19.10;44.70;;;;;;5050958;28;20120;-60
2022/12/19 00:28:45;;;;;;;5.32;3.35;;;19.00;44.70;;;;;;5045380;28;20087;-60
2022/12/19 00:31:11;;;;;;;6.28;3.45;;;19.00;44.70;;;;;;5051349;28;20107;-60
2022/12/19 00:33:36;;;;;;;5.75;3.35;;;19.00;44.70;;;;;;5051669;28;20477;-61
2022/12/19 00:36:07;;;;;;;6.13;3.47;;;19.10;44.70;;;;;;5054368;28;20568;-60
2022/12/19 00:38:32;;;;;;;5.38;3.47;;;19.00;44.70;;;;;;5054465;28;20041;-60
2022/12/19 00:41:11;;;;;;;5.82;3.70;;;19.00;44.70;;;;;;5054234;28;20041;-60
2022/12/19 00:43:37;;;;;;;6.78;3.60;;;19.00;45.40;;;;;;5055105;28;20041;-61
2022/12/19 00:46:04;;;;;;;5.72;3.60;;;19.00;44.80;;;;;;5054858;28;20102;-61
2022/12/19 00:48:30;;;;;;;5.93;3.50;;;19.00;44.80;;;;;;5054079;28;20037;-60
2022/12/19 00:51:03;;;;;;;6.32;3.55;;;19.00;44.80;;;;;;5054440;28;20056;-60
2022/12/19 00:53:29;;;;;;;5.18;3.30;;;19.00;44.90;;;;;;5054584;28;20099;-60
2022/12/19 00:55:54;;;;;;;5.25;3.60;;;19.00;44.80;;;;;;5054021;28;20507;-60
2022/12/19 00:58:20;;;;;;;6.03;3.42;;;19.00;44.80;;;;;;5054483;28;20041;-60
2022/12/19 01:00:45;;;;;;;6.07;3.78;;;19.00;44.90;;;;;;5054647;28;20040;-60
2022/12/19 01:03:11;;;;;;;4.65;3.03;;;19.00;44.80;;;;;;5053115;28;20580;-61
2022/12/19 01:05:37;;;;;;;5.35;3.40;;;19.10;44.90;;;;;;5054002;28;20048;-61
2022/12/19 01:08:02;;;;;;;5.57;3.28;;;19.10;44.90;;;;;;5054474;28;20037;-61
2022/12/19 01:10:28;;;;;;;5.53;3.40;;;19.10;44.90;;;;;;5053055;28;20630;-61
2022/12/19 01:12:53;;;;;;;5.25;3.30;;;19.10;44.90;;;;;;5053023;28;20094;-61
2022/12/19 01:15:19;;;;;;;5.45;3.42;;;19.10;44.90;;;;;;5052595;28;20081;-61
2022/12/19 01:17:48;;;;;;;5.28;3.22;;;19.10;44.90;;;;;;5052275;28;20059;-61
2022/12/19 01:20:16;;;;;;;5.82;3.50;;;19.10;44.80;;;;;;5053817;28;20507;-60
2022/12/19 01:22:42;;;;;;;7.03;3.47;;;19.10;44.80;;;;;;5052967;28;20119;-60
2022/12/19 01:25:07;;;;;;;6.43;3.47;;;19.10;44.90;;;;;;5052240;28;20052;-60
2022/12/19 01:27:33;;;;;;;5.72;3.80;;;19.20;44.90;;;;;;5052423;28;20135;-60
2022/12/19 01:29:58;;;;;;;4.97;3.25;;;19.10;44.80;;;;;;5051911;28;20095;-60
2022/12/19 01:32:24;;;;;;;6.18;3.60;;;19.10;44.80;;;;;;5051629;28;20059;-60
2022/12/19 01:34:49;;;;;;;6.70;3.67;;;19.20;44.90;;;;;;5052691;28;20488;-61
2022/12/19 01:37:18;;;;;;;5.88;3.50;;;19.20;44.90;;;;;;5051480;28;20064;-60
2022/12/19 01:39:44;;;;;;;5.30;3.67;;;19.20;44.90;;;;;;5054179;28;20037;-60
2022/12/19 01:42:14;;;;;;;6.28;3.80;;;19.20;44.90;;;;;;5052513;28;20064;-62
2022/12/19 01:45:07;;;;;;;5.97;3.40;;;19.20;44.90;;;;;;5053028;28;20048;-61
2022/12/19 01:47:50;;;;;;;5.05;3.53;;;19.20;44.90;;;;;;5052374;28;20051;-60
2022/12/19 01:50:40;;;;;;;5.13;3.03;;;19.20;44.90;;;;;;5047478;28;20447;-61
2022/12/19 01:53:06;;;;;;;6.05;3.63;;;19.20;44.90;;;;;;5043770;28;20498;-61
2022/12/19 01:55:32;;;;;;;6.43;3.35;;;19.20;44.80;;;;;;5035191;28;20059;-61
2022/12/19 01:57:58;;;;;;;5.53;3.22;;;19.30;44.90;;;;;;5053043;28;20395;-60
2022/12/19 02:00:23;;;;;;;6.50;3.42;;;19.30;44.90;;;;;;5034291;28;20059;-61
2022/12/19 02:02:58;;;;;;;5.60;3.58;;;19.30;44.90;;;;;;5051783;28;20063;-60
2022/12/19 02:05:24;;;;;;;5.63;3.20;;;19.30;44.90;;;;;;5034398;28;20051;-61
2022/12/19 02:07:49;;;;;;;5.22;3.25;;;19.30;44.90;;;;;;5052119;28;20128;-61
2022/12/19 02:10:15;;;;;;;6.40;3.55;;;19.30;44.80;;;;;;5051527;28;20068;-60
2022/12/19 02:12:41;;;;;;;5.65;3.50;;;19.30;44.80;;;;;;5052167;28;20049;-61
2022/12/19 02:15:07;;;;;;;5.25;3.42;;;19.30;44.80;;;;;;5052185;28;20045;-60
2022/12/19 02:18:01;;;;;;;5.38;3.03;;;19.30;44.80;;;;;;5051343;28;20049;-60
2022/12/19 02:20:55;;;;;;;6.05;3.45;;;19.30;44.80;;;;;;5050835;28;20484;-60
2022/12/19 02:23:38;;;;;;;6.10;3.78;;;19.30;44.80;;;;;;5051526;28;20067;-60
2022/12/19 02:26:06;;;;;;;5.07;3.35;;;19.30;44.80;;;;;;5053139;28;20468;-60
2022/12/19 02:28:51;;;;;;;;;;;19.40;44.80;;;;;;5051987;28;20083;-60
2022/12/19 02:31:32;;;;;;;5.90;3.63;;;19.30;44.90;;;;;;5052629;28;19920;-60
2022/12/19 02:34:28;;;;;;;4.85;3.25;;;19.40;44.90;;;;;;5050830;28;20041;-60
2022/12/19 02:37:01;;;;;;;5.63;3.40;;;19.30;44.80;;;;;;5052502;28;20544;-60
2022/12/19 02:39:31;;;;;;;5.95;3.40;;;19.40;44.80;;;;;;5051117;28;20404;-60
2022/12/19 02:41:57;;;;;;;4.75;3.03;;;19.40;44.80;;;;;;5050859;28;20041;-60
2022/12/19 02:44:32;;;;;;;5.40;3.40;;;19.40;44.70;;;;;;5052514;28;20072;-61
2022/12/19 02:46:59;;;;;;;5.45;3.40;;;19.40;44.80;;;;;;5034653;28;20052;-61
2022/12/19 02:49:24;;;;;;;7.55;3.78;;;19.40;44.80;;;;;;5050346;28;20053;-60
2022/12/19 02:51:50;;;;;;;5.70;3.38;;;19.40;44.80;;;;;;5052711;28;20196;-60
2022/12/19 02:54:16;;;;;;;5.43;3.20;;;19.40;44.70;;;;;;5047225;28;20041;-60
2022/12/19 02:56:58;;;;;;;5.03;3.10;;;19.40;44.80;;;;;;5051226;28;20477;-60
2022/12/19 02:59:42;;;;;;;4.72;3.03;;;19.40;44.70;;;;;;5050771;28;20400;-60
2022/12/19 03:02:24;;;;;;;5.60;3.35;;;19.40;44.70;;;;;;5034971;28;20041;-60
2022/12/19 03:05:10;;;;;;;5.78;3.20;;;19.40;44.70;;;;;;5050743;28;20049;-60
2022/12/19 03:07:41;;;;;;;5.55;3.70;;;19.40;44.80;;;;;;5036634;28;20053;-60
2022/12/19 03:10:20;;;;;;;5.60;3.45;;;19.40;44.80;;;;;;5050012;28;20049;-60
2022/12/19 03:12:50;;;;;;;4.80;3.08;;;19.40;44.80;;;;;;5050719;28;20401;-61
2022/12/19 03:15:15;;;;;;;4.80;2.97;;;19.40;44.80;;;;;;5050460;28;20036;-60
2022/12/19 03:17:41;;;;;;;5.57;3.33;;;19.40;44.80;;;;;;5051535;28;20187;-60
2022/12/19 03:20:21;;;;;;;6.35;3.35;;;19.40;44.80;;;;;;5050618;28;20047;-60
2022/12/19 03:22:46;;;;;;;5.20;2.90;;;19.40;44.70;;;;;;5050011;28;20492;-60
2022/12/19 03:25:12;;;;;;;4.93;3.15;;;19.40;44.70;;;;;;5052048;28;20044;-61
2022/12/19 03:27:37;;;;;;;4.85;3.00;;;19.40;44.70;;;;;;5050806;28;20496;-60
2022/12/19 03:30:10;;;;;;;5.72;3.08;;;19.40;44.70;;;;;;5050000;28;20041;-60
2022/12/19 03:32:37;;;;;;;5.90;3.38;;;19.40;44.80;;;;;;5051002;28;20053;-60
2022/12/19 03:35:23;;;;;;;5.00;3.25;;;19.40;44.80;;;;;;5034084;28;20055;-60
2022/12/19 03:37:50;;;;;;;5.47;3.38;;;19.40;44.80;;;;;;5049761;28;20060;-60
2022/12/19 03:40:17;;;;;;;5.53;3.22;;;19.30;44.70;;;;;;5050601;28;20546;-61
2022/12/19 03:45:48;;;;;;;5.18;3.00;;;19.40;44.80;;;;;;5049960;28;20411;-61
2022/12/19 03:48:21;;;;;;;4.88;3.10;;;19.40;44.80;;;;;;5050861;28;20098;-60
2022/12/19 03:51:02;;;;;;;6.03;3.45;;;19.40;44.80;;;;;;5049856;28;20480;-60
2022/12/19 03:53:35;;;;;;;5.72;3.08;;;19.40;44.80;;;;;;5050545;28;20045;-60
2022/12/19 03:56:32;;;;;;;5.20;2.95;;;19.40;44.80;;;;;;5050515;28;20049;-60
2022/12/19 03:59:02;;;;;;;5.43;3.05;;;19.40;44.80;;;;;;5050877;28;20048;-60
2022/12/19 04:01:28;;;;;;;4.68;3.00;;;19.40;44.80;;;;;;5051480;28;20485;-60
2022/12/19 04:03:54;;;;;;;5.18;3.40;;;19.40;44.80;;;;;;5050562;28;20037;-60
2022/12/19 04:06:20;;;;;;;5.25;3.05;;;19.40;44.80;;;;;;5049368;28;20063;-60
2022/12/19 04:08:46;;;;;;;5.70;3.10;;;19.40;44.80;;;;;;5050630;28;20489;-61
2022/12/19 04:11:15;;;;;;;4.53;2.70;;;19.40;44.80;;;;;;5053872;28;20084;-60
2022/12/19 04:13:44;;;;;;;5.68;3.20;;;19.40;44.80;;;;;;5053485;28;20045;-60
2022/12/19 04:16:14;;;;;;;5.28;3.15;;;19.40;44.80;;;;;;5054034;28;20044;-60
2022/12/19 04:18:40;;;;;;;4.95;3.20;;;19.40;44.80;;;;;;5048972;28;20072;-60
2022/12/19 04:21:10;;;;;;;5.07;3.28;;;19.40;44.80;;;;;;5053302;28;20404;-60
2022/12/19 04:23:38;;;;;;;5.13;3.10;;;19.40;44.80;;;;;;5054313;28;20041;-60
2022/12/19 04:26:04;;;;;;;5.78;3.38;;;19.50;44.80;;;;;;5053402;28;20045;-60
2022/12/19 04:28:36;;;;;;;4.68;2.83;;;19.40;44.80;;;;;;5054657;28;20430;-60
2022/12/19 04:31:01;;;;;;;5.03;3.17;;;19.50;44.90;;;;;;5054996;28;20101;-60
2022/12/19 04:33:27;;;;;;;5.38;3.13;;;19.50;44.80;;;;;;5052924;28;20099;-60
2022/12/19 04:35:53;;;;;;;4.10;2.72;;;19.50;44.80;;;;;;5053943;28;20045;-60
2022/12/19 04:38:21;;;;;;;5.60;3.00;;;19.50;44.80;;;;;;5037196;28;20559;-60
2022/12/19 04:40:47;;;;;;;4.30;2.65;;;19.50;44.80;;;;;;5052815;28;20064;-61
2022/12/19 04:43:13;;;;;;;4.93;2.72;;;19.50;44.80;;;;;;5054784;28;20040;-60
2022/12/19 04:45:40;;;;;;;4.00;2.58;;;19.50;44.80;;;;;;5055085;28;20443;-60
2022/12/19 04:48:06;;;;;;;4.85;2.60;;;19.50;44.80;;;;;;5054338;28;20491;-60
2022/12/19 04:50:32;;;;;;;5.43;3.03;;;19.50;44.80;;;;;;5054155;28;20037;-60
2022/12/19 04:52:57;;;;;;;4.20;2.58;;;19.50;44.80;;;;;;5054299;28;20049;-60
2022/12/19 04:55:23;;;;;;;5.55;2.78;;;19.50;44.80;;;;;;5053593;28;20203;-60
2022/12/19 04:57:49;;;;;;;4.35;2.80;;;19.60;44.90;;;;;;5053551;28;20072;-60
2022/12/19 05:00:15;;;;;;;4.45;2.58;;;19.60;44.90;;;;;;5052886;28;20041;-60
2022/12/19 05:02:40;;;;;;;4.82;2.55;;;19.50;44.80;;;;;;5053193;28;20115;-60
2022/12/19 05:05:06;;;;;;;4.22;2.70;;;19.60;44.90;;;;;;5053770;28;20488;-61
2022/12/19 05:07:31;;;;;;;4.05;2.55;;;19.60;44.80;;;;;;5054116;28;20493;-61
2022/12/19 05:10:00;;;;;;;4.47;2.72;;;19.60;44.90;;;;;;5053670;28;20053;-61
2022/12/19 05:12:27;;;;;;;5.63;2.70;;;19.60;44.90;;;;;;5053992;28;20423;-60
2022/12/19 05:14:53;;;;;;;4.22;2.67;;;19.60;44.90;;;;;;5054141;28;20064;-60
2022/12/19 05:17:18;;;;;;;4.55;2.78;;;19.60;44.80;;;;;;5051946;28;20140;-60
2022/12/19 05:19:44;;;;;;;4.07;2.47;;;19.60;44.90;;;;;;5052521;28;20053;-60
2022/12/19 05:22:09;;;;;;;4.40;2.70;;;19.60;44.90;;;;;;5051669;28;20481;-61
2022/12/19 05:24:35;;;;;;;4.72;2.60;;;19.60;44.90;;;;;;5053017;28;20388;-60
2022/12/19 05:27:00;;;;;;;3.97;2.60;;;19.60;44.90;;;;;;5054160;28;20041;-60
2022/12/19 05:29:26;;;;;;;3.97;2.40;;;19.60;44.80;;;;;;5051687;28;20127;-60
2022/12/19 05:31:52;;;;;;;4.80;2.78;;;19.60;44.90;;;;;;5054217;28;20060;-60
2022/12/19 05:34:17;;;;;;;4.07;2.55;;;19.70;44.90;;;;;;5053746;28;20033;-61
2022/12/19 05:36:43;;;;;;;4.45;2.55;;;19.70;44.90;;;;;;5053180;28;20459;-60
2022/12/19 05:39:08;;;;;;;3.95;2.42;;;19.70;44.90;;;;;;5053701;28;20067;-62
2022/12/19 05:41:34;;;;;;;4.85;2.78;;;19.70;44.90;;;;;;5053880;28;20119;-61
2022/12/19 05:43:59;;;;;;;4.07;2.50;;;19.70;44.90;;;;;;5053063;28;20051;-61
2022/12/19 05:46:26;;;;;;;5.32;2.75;;;19.70;44.90;;;;;;5053632;28;20086;-61
2022/12/19 05:48:54;;;;;;;4.75;2.60;;;19.70;44.90;;;;;;5052236;28;20053;-62
2022/12/19 05:51:20;;;;;;;5.03;2.80;;;19.70;45.00;;;;;;5052785;28;20051;-61
2022/12/19 05:53:45;;;;;;;3.05;2.38;;;19.70;44.90;;;;;;5052297;28;20084;-61
2022/12/19 05:56:19;;;;;;;3.78;2.20;;;19.70;45.00;;;;;;5053239;28;20044;-61
2022/12/19 05:58:45;;;;;;;4.43;2.72;;;19.70;45.00;;;;;;5051379;28;20480;-61
2022/12/19 06:01:31;;;;;;;4.43;2.75;;;19.70;45.00;;;;;;5053028;28;20044;-61
2022/12/19 06:03:56;;;;;;;3.05;2.05;;;19.70;45.00;;;;;;5048191;28;20072;-61
2022/12/19 06:06:23;;;;;;;4.28;2.55;;;19.70;45.00;;;;;;5052070;28;20417;-61
2022/12/19 06:08:56;;;;;;;4.18;2.30;;;19.70;45.00;;;;;;5057474;28;20079;-61
2022/12/19 06:11:22;;;;;;;3.70;2.25;;;19.80;45.00;;;;;;5072241;28;20040;-61
2022/12/19 06:13:47;;;;;;;4.35;2.40;;;19.80;45.00;;;;;;5071950;28;20050;-61
2022/12/19 06:16:14;;;;;;;4.20;2.58;;;19.80;45.00;;;;;;5072966;28;20048;-61
2022/12/19 06:18:41;;;;;;;4.60;2.58;;;19.80;45.00;;;;;;5071175;28;20044;-61
2022/12/19 06:21:11;;;;;;;4.15;2.40;;;19.80;45.00;;;;;;5072001;28;20471;-61
2022/12/19 06:23:37;;;;;;;4.68;2.50;;;19.80;45.00;;;;;;5070489;28;20037;-61
2022/12/19 06:26:03;;;;;;;4.00;2.40;;;19.80;45.10;;;;;;5051142;28;20143;-61
2022/12/19 06:28:29;;;;;;;4.18;2.35;;;19.80;45.10;;;;;;5052317;28;20053;-61
2022/12/19 06:30:56;;;;;;;3.78;2.08;;;19.80;45.10;;;;;;5052393;28;20044;-61
2022/12/19 06:33:22;;;;;;;4.05;2.30;;;19.80;45.00;;;;;;5050084;28;20041;-61
2022/12/19 06:35:47;;;;;;;3.42;2.50;;;19.80;45.00;;;;;;5052824;28;20049;-61
2022/12/19 06:38:13;;;;;;;3.55;2.25;;;19.90;45.10;;;;;;5052606;28;20047;-61
2022/12/19 06:43:26;;;;;;;;;;;19.80;45.10;;;;;;5052961;28;20049;-61
2022/12/19 06:45:52;;;;;;;4.18;2.25;;;19.90;45.20;;;;;;5052666;28;19920;-61
2022/12/19 06:48:17;;;;;;;4.43;2.10;;;19.80;45.10;;;;;;5051521;28;20049;-61
2022/12/19 06:50:43;;;;;;;4.03;2.08;;;19.90;45.10;;;;;;5052425;28;20056;-61
2022/12/19 06:53:09;;;;;;;3.38;2.13;;;19.80;45.10;;;;;;5050944;28;20048;-61
2022/12/19 06:55:36;;;;;;;3.72;2.28;;;19.90;45.20;;;;;;5051518;28;20045;-61
2022/12/19 06:58:01;;;;;;;4.40;2.47;;;19.90;45.20;;;;;;5034658;28;20071;-61
2022/12/19 07:00:27;;;;;;;3.85;2.00;;;19.90;45.20;;;;;;5052021;28;20400;-61
2022/12/19 07:02:52;;;;;;;3.70;2.00;;;19.90;45.20;;;;;;5051767;28;20128;-61
2022/12/19 07:05:18;;;;;;;3.30;2.00;;;19.90;45.20;;;;;;5052222;28;20037;-62
2022/12/19 07:07:44;;;;;;;3.58;2.00;;;19.90;45.20;;;;;;5050157;28;20045;-62
2022/12/19 07:10:10;;;;;;;3.10;1.80;;;19.90;45.20;;;;;;5051738;28;20056;-61
2022/12/19 07:12:35;;;;;;;4.45;2.50;;;19.90;45.20;;;;;;5052301;28;20476;-61
2022/12/19 07:15:01;;;;;;;3.20;2.05;;;19.90;45.30;;;;;;5051223;28;20080;-62
2022/12/19 07:17:26;;;;;;;3.63;2.10;;;19.90;45.30;;;;;;5052031;28;20045;-61
2022/12/19 07:19:52;;;;;;;4.57;2.17;;;19.90;45.30;;;;;;5051132;28;20049;-64
2022/12/19 07:22:18;;;;;;;3.55;1.80;;;20.00;45.30;;;;;;5030587;28;20048;-60
2022/12/19 07:24:43;;;;;;;3.58;2.03;;;20.00;45.30;;;;;;5050918;28;20124;-60
2022/12/19 07:27:09;;;;;;;4.97;2.33;;;20.10;45.40;;;;;;5050648;28;20037;-60
2022/12/19 07:29:34;;;;;;;4.97;2.05;;;20.10;45.30;;;;;;5050292;28;20132;-59
2022/12/19 07:32:00;;;;;;;4.65;1.80;;;20.10;45.30;;;;;;5050666;28;20041;-60
2022/12/19 07:34:25;;;;;;;4.07;2.30;;;20.20;45.40;;;;;;5050506;28;20412;-60
2022/12/19 07:36:51;;;;;;;3.03;1.70;;;20.10;45.30;;;;;;5049486;28;20037;-61
2022/12/19 07:39:17;;;;;;;3.53;1.80;;;20.20;45.40;;;;;;5050680;28;20098;-60
2022/12/19 07:41:42;;;;;;;3.35;1.90;;;20.20;45.40;;;;;;5051399;28;20477;-60
2022/12/19 07:44:08;;;;;;;4.63;2.00;;;20.20;45.40;;;;;;5053708;28;20037;-64
2022/12/19 07:46:34;;;;;;;3.65;1.90;;;20.30;45.60;;;;;;5052580;28;20041;-59
2022/12/19 07:48:59;;;;;;;4.10;1.90;;;20.30;45.70;;;;;;5054918;28;20124;-60
2022/12/19 07:51:25;;;;;;;2.58;1.60;;;20.30;45.80;;;;;;5053312;28;20472;-60
2022/12/19 07:53:51;;;;;;;3.50;1.70;;;20.30;45.90;;;;;;5055226;28;20443;-59
2022/12/19 07:56:16;;;;;;;5.15;2.30;;;20.30;46.10;;;;;;5055051;28;20053;-60
2022/12/19 07:58:43;;;;;;;3.22;1.83;;;20.40;46.30;;;;;;5053014;28;20132;-61
2022/12/19 08:01:09;;;;;;;2.50;1.50;;;20.40;46.30;;;;;;5055049;28;20473;-60
2022/12/19 08:03:34;;;;;;;3.38;1.52;;;20.40;46.30;;;;;;5054828;28;20047;-60
2022/12/19 08:06:01;;;;;;;2.70;1.55;;;20.40;46.40;;;;;;5054283;28;20033;-60
2022/12/19 08:08:27;;;;;;;5.20;1.70;;;20.40;46.40;;;;;;5055147;28;20105;-59
2022/12/19 08:10:52;;;;;;;3.83;1.70;;;20.40;46.50;;;;;;5048822;28;20053;-59
2022/12/19 08:13:18;;;;;;;3.65;1.88;;;20.50;46.60;;;;;;5039417;28;20046;-60
2022/12/19 08:15:44;;;;;;;3.45;1.50;;;20.40;46.60;;;;;;5034908;28;20044;-60
2022/12/19 08:18:09;;;;;;;3.05;1.60;;;20.50;46.70;;;;;;5039277;28;20060;-61
2022/12/19 08:20:35;;;;;;;2.75;1.80;;;20.50;46.70;;;;;;5038298;28;20108;-60
2022/12/19 08:23:00;;;;;;;4.40;1.60;;;20.50;46.70;;;;;;5036116;28;20046;-60
2022/12/19 08:25:26;;;;;;;2.55;1.27;;;20.50;46.70;;;;;;5033762;28;20167;-60
2022/12/19 08:27:51;;;;;;;4.78;1.77;;;20.50;46.70;;;;;;5037950;28;20062;-60
2022/12/19 08:30:17;;;;;;;3.20;1.50;;;20.50;46.70;;;;;;5054608;28;20036;-60
2022/12/19 08:32:44;;;;;;;2.85;1.42;;;20.50;46.70;;;;;;5052341;28;20051;-60
2022/12/19 08:35:09;;;;;;;3.45;1.50;;;20.50;46.80;;;;;;5054459;28;20044;-60
2022/12/19 08:37:35;;;;;;;3.53;1.48;;;20.50;46.80;;;;;;5054744;28;20049;-60
2022/12/19 08:40:01;;;;;;;3.22;1.40;;;20.50;46.90;;;;;;5053940;28;20041;-60
2022/12/19 08:42:26;;;;;;;3.05;1.60;;;20.50;46.80;;;;;;5053127;28;20037;-60
2022/12/19 08:44:52;;;;;;;2.55;1.52;;;20.50;46.90;;;;;;5054343;28;20063;-60
2022/12/19 08:47:17;;;;;;;2.70;1.40;;;20.40;46.90;;;;;;5048416;28;20049;-60
2022/12/19 08:49:43;;;;;;;2.55;1.50;;;20.50;46.90;;;;;;5054608;28;20041;-60
2022/12/19 08:52:09;;;;;;;3.22;1.25;;;20.40;46.90;;;;;;5053930;28;20472;-60
2022/12/19 08:54:34;;;;;;;2.67;1.63;;;20.40;47.00;;;;;;5051538;28;20037;-60
2022/12/19 08:57:00;;;;;;;3.13;1.50;;;20.40;47.10;;;;;;5054175;28;20049;-60
2022/12/19 08:59:25;;;;;;;3.33;1.70;;;20.40;47.20;;;;;;5052361;28;20404;-63
2022/12/19 09:01:51;;;;;;;6.05;1.15;;;20.40;47.30;;;;;;5052109;28;20041;-60
2022/12/19 09:04:16;;;;;;;3.72;1.42;;;20.40;47.20;;;;;;5051925;28;20041;-60
2022/12/19 09:06:42;;;;;;;4.43;1.38;;;20.40;47.20;;;;;;5054400;28;20041;-60
2022/12/19 09:09:08;;;;;;;2.30;1.48;;;20.40;47.20;;;;;;5053666;28;20057;-59
2022/12/19 09:11:33;;;;;;;3.95;1.55;;;20.40;47.20;;;;;;5054260;28;20135;-60
2022/12/19 09:13:59;;;;;;;1.77;1.15;;;20.40;47.20;;;;;;5054513;28;20530;-60
2022/12/19 09:16:25;;;;;;;3.28;1.40;;;20.40;47.20;;;;;;5053374;28;20037;-60
2022/12/19 09:18:52;;;;;;;2.17;1.10;;;20.40;47.20;;;;;;5053114;28;20052;-60
2022/12/19 09:21:21;;;;;;;2.15;1.25;;;20.30;47.20;;;;;;5053008;28;20108;-60
2022/12/19 09:23:47;;;;;;;2.60;1.38;;;20.30;47.20;;;;;;5053044;28;20049;-60
2022/12/19 09:26:13;;;;;;;2.40;1.40;;;20.30;47.20;;;;;;5051262;28;20052;-61
2022/12/19 09:28:39;;;;;;;2.75;1.48;;;20.30;47.20;;;;;;5053423;28;20049;-60
2022/12/19 09:31:07;;;;;;;2.30;1.30;;;20.30;47.10;;;;;;5053907;28;20045;-60
2022/12/19 09:33:34;;;;;;;4.50;1.65;;;20.30;47.20;;;;;;5050978;28;20075;-60
2022/12/19 09:35:59;;;;;;;6.93;1.60;;;20.30;47.20;;;;;;5053490;28;20056;-60
2022/12/19 09:38:25;;;;;;;7.75;1.75;;;20.30;47.30;;;;;;5049440;28;20045;-59
2022/12/19 09:40:57;;;;;;;5.70;1.40;;;20.30;47.30;;;;;;5052806;28;20049;-60
2022/12/19 09:43:43;;;;;;;2.75;1.48;;;20.30;47.70;;;;;;5043139;28;20505;-59
2022/12/19 09:46:19;;;;;;;3.97;1.35;;;20.30;47.90;;;;;;5051485;28;20037;-59
2022/12/19 09:48:45;;;;;;;3.17;1.35;;;20.30;48.00;;;;;;5047881;28;20044;-60
2022/12/19 09:51:26;;;;;;;3.70;1.50;;;20.30;48.10;;;;;;5050766;28;20037;-59
2022/12/19 09:54:00;;;;;;;2.50;1.20;;;20.30;48.10;;;;;;5051510;28;20037;-59
2022/12/19 09:56:28;;;;;;;3.45;1.40;;;20.30;48.20;;;;;;5051185;28;20049;-59
2022/12/19 09:58:59;;;;;;;;;;;20.40;48.30;;;;;;5052905;28;20052;-60
2022/12/19 10:01:28;;;;;;;3.45;1.30;;;20.30;48.20;;;;;;5068674;28;19927;-59
2022/12/19 10:04:05;;;;;;;3.55;1.15;;;20.30;48.20;;;;;;5051587;28;20113;-60
2022/12/19 10:06:31;;;;;;;3.38;1.50;;;20.40;48.40;;;;;;5051774;28;20041;-59
2022/12/19 10:08:57;;;;;;;2.63;1.10;;;20.40;48.30;;;;;;5053192;28;20106;-60
2022/12/19 10:11:36;;;;;;;4.00;1.20;;;20.30;48.30;;;;;;5033787;28;20049;-61
2022/12/19 10:14:16;;;;;;;2.45;1.30;;;20.40;48.50;;;;;;5033128;28;20428;-59
2022/12/19 10:17:03;;;;;;;3.17;1.52;;;20.40;48.50;;;;;;5032844;28;20053;-60
2022/12/19 10:19:51;;;;;;;4.97;1.47;;;20.40;48.40;;;;;;5031154;28;20049;-60
2022/12/19 10:22:23;;;;;;;3.60;1.15;;;20.30;48.20;;;;;;5033784;28;20049;-60
2022/12/19 10:25:10;;;;;;;4.78;1.42;;;20.40;48.40;;;;;;5051326;28;20045;-61
2022/12/19 10:27:48;;;;;;;3.47;1.30;;;20.40;48.50;;;;;;5053263;28;20102;-60
2022/12/19 10:30:14;;;;;;;4.03;1.37;;;20.40;48.40;;;;;;5053274;28;20044;-60
2022/12/19 10:32:45;;;;;;;3.63;1.20;;;20.40;48.30;;;;;;5052534;28;20052;-60
2022/12/19 10:35:16;;;;;;;3.22;1.40;;;20.40;48.20;;;;;;5052040;28;20045;-60
2022/12/19 10:37:55;;;;;;;2.95;1.50;;;20.40;48.20;;;;;;5053286;28;20080;-60
2022/12/19 10:40:33;;;;;;;2.40;1.27;;;20.40;48.10;;;;;;5018852;28;20044;-60
2022/12/19 10:43:13;;;;;;;2.15;1.35;;;20.40;48.10;;;;;;5051768;28;20049;-60
2022/12/19 10:45:50;;;;;;;1.95;1.15;;;20.40;48.10;;;;;;5035010;28;20037;-61
2022/12/19 10:48:17;;;;;;;2.00;1.25;;;20.40;48.00;;;;;;5035878;28;20036;-62
2022/12/19 10:50:43;;;;;;;4.37;1.60;;;20.40;48.00;;;;;;5052942;28;20041;-59
2022/12/19 10:53:10;;;;;;;3.38;1.58;;;20.40;48.10;;;;;;5052140;28;20055;-61
2022/12/19 10:55:48;;;;;;;6.75;1.60;;;20.40;48.20;;;;;;5052738;28;20045;-60
2022/12/19 10:58:25;;;;;;;4.00;1.67;;;20.40;48.20;;;;;;5052455;28;20072;-61
2022/12/19 11:01:21;;;;;;;4.20;1.88;;;20.40;48.20;;;;;;5052028;28;20370;-60
2022/12/19 11:03:48;;;;;;;4.72;1.80;;;20.40;48.20;;;;;;5053043;28;20037;-61
2022/12/19 11:06:49;;;;;;;6.60;1.95;;;20.40;48.10;;;;;;5050928;28;20419;-60
2022/12/19 11:09:26;;;;;;;4.78;1.92;;;20.40;48.00;;;;;;5013447;28;20045;-60
2022/12/19 11:12:06;;;;;;;4.82;1.50;;;20.40;48.00;;;;;;5051914;28;20045;-59
2022/12/19 11:14:33;;;;;;;3.58;1.60;;;20.40;48.00;;;;;;5050054;28;20044;-59
2022/12/19 11:16:58;;;;;;;5.65;1.52;;;20.40;48.10;;;;;;5051039;28;20045;-59
2022/12/19 11:19:35;;;;;;;3.90;1.50;;;20.40;48.10;;;;;;5049782;28;20063;-59
2022/12/19 11:22:19;;;;;;;4.35;1.60;;;20.40;48.10;;;;;;5051029;28;20071;-59
2022/12/19 11:24:51;;;;;;;5.65;1.95;;;20.40;48.20;;;;;;5037358;28;20056;-59
2022/12/19 11:27:38;;;;;;;6.50;1.70;;;20.40;48.20;;;;;;5052247;28;20392;-59
2022/12/19 11:30:22;;;;;;;7.07;1.90;;;20.40;48.30;;;;;;5052082;28;20060;-59
2022/12/19 11:32:48;;;;;;;3.83;1.70;;;20.40;48.20;;;;;;5052336;28;20049;-59
2022/12/19 11:35:17;;;;;;;4.88;1.50;;;20.40;48.20;;;;;;5051369;28;20048;-59
2022/12/19 11:37:52;;;;;;;5.25;1.58;;;20.50;48.40;;;;;;5052128;28;20048;-58
2022/12/19 11:40:32;;;;;;;6.13;2.10;;;20.50;48.40;;;;;;5052087;28;20045;-59
2022/12/19 11:43:16;;;;;;;5.85;1.70;;;20.50;48.50;;;;;;5051736;28;20037;-59
2022/12/19 11:46:01;;;;;;;2.58;1.40;;;20.40;48.50;;;;;;5052606;28;20037;-58
2022/12/19 11:48:45;;;;;;;4.63;1.63;;;20.50;48.60;;;;;;5050971;28;20500;-59
2022/12/19 11:51:31;;;;;;;4.55;1.52;;;20.40;48.60;;;;;;5048992;28;20041;-59
2022/12/19 11:54:30;;;;;;;2.33;1.60;;;20.40;48.60;;;;;;5047848;28;20076;-59
2022/12/19 11:56:56;;;;;;;3.25;1.67;;;20.50;48.70;;;;;;5047893;28;20080;-61
2022/12/19 11:59:35;;;;;;;5.10;1.50;;;20.50;48.70;;;;;;5051651;28;20037;-62
2022/12/19 12:02:23;;;;;;;3.47;1.45;;;20.50;48.80;;;;;;5035710;28;20041;-60
2022/12/19 12:05:07;;;;;;;3.77;1.80;;;20.50;48.80;;;;;;5049328;28;20033;-61
2022/12/19 12:07:37;;;;;;;3.67;1.42;;;20.50;48.80;;;;;;5034848;28;20060;-60
2022/12/19 12:10:18;;;;;;;3.47;1.60;;;20.50;48.90;;;;;;5049214;28;20234;-60
2022/12/19 12:13:07;;;;;;;3.60;1.63;;;20.50;49.00;;;;;;5050134;28;20540;-60
2022/12/19 12:15:54;;;;;;;2.78;1.30;;;20.50;49.10;;;;;;5050710;28;20389;-60
2022/12/19 12:18:48;;;;;;;3.67;1.90;;;20.50;49.10;;;;;;5048985;28;20120;-60
2022/12/19 12:21:24;;;;;;;8.45;1.98;;;20.50;49.10;;;;;;5051782;28;20048;-60
2022/12/19 12:24:11;;;;;;;5.53;1.20;;;20.50;49.10;;;;;;5052129;28;20102;-60
2022/12/19 12:26:43;;;;;;;3.55;1.40;;;20.50;49.10;;;;;;5050828;28;20051;-60
2022/12/19 12:29:45;;;;;;;4.95;1.50;;;20.50;49.10;;;;;;5050631;28;20041;-60
2022/12/19 12:32:20;;;;;;;5.53;1.65;;;20.50;49.10;;;;;;5053017;28;20171;-60
2022/12/19 12:35:18;;;;;;;3.03;1.30;;;20.50;49.10;;;;;;5054316;28;20120;-60
2022/12/19 12:38:05;;;;;;;3.38;1.35;;;20.50;49.10;;;;;;5054317;28;20564;-59
2022/12/19 12:40:43;;;;;;;4.57;1.70;;;20.50;49.10;;;;;;5051234;28;20045;-61
2022/12/19 12:43:33;;;;;;;4.60;1.80;;;20.50;49.20;;;;;;5064442;28;20558;-60
2022/12/19 12:45:59;;;;;;;3.75;1.20;;;20.50;49.20;;;;;;5054984;28;20067;-60
2022/12/19 12:48:37;;;;;;;3.97;1.50;;;20.50;49.30;;;;;;5061346;28;20037;-60
2022/12/19 12:51:02;;;;;;;2.15;1.20;;;20.50;49.50;;;;;;5052384;28;20212;-60
2022/12/19 12:53:36;;;;;;;4.53;1.48;;;20.50;49.40;;;;;;5052030;28;20124;-60
2022/12/19 12:56:03;;;;;;;4.18;1.52;;;20.50;49.50;;;;;;5053336;28;20041;-60
2022/12/19 12:58:41;;;;;;;4.55;1.40;;;20.60;49.50;;;;;;5058017;28;20048;-60
2022/12/19 13:01:08;;;;;;;6.85;2.05;;;20.50;49.50;;;;;;5073826;28;20369;-60
2022/12/19 13:03:33;;;;;;;2.40;1.33;;;20.60;49.60;;;;;;5073424;28;20052;-60
2022/12/19 13:06:20;;;;;;;2.80;1.33;;;20.60;49.60;;;;;;5062660;28;20041;-60
2022/12/19 13:08:46;;;;;;;5.63;1.77;;;20.60;49.70;;;;;;5061097;28;20691;-60
2022/12/19 13:14:04;;;;;;;3.17;1.20;;;20.60;49.50;;;;;;5031104;28;20079;-60